sensor_id;sensor_type;location;lat;lon;timestamp;P1;durP1;ratioP1;P2;durP2;ratioP2
18738;SDS011;9498;51.862;19.460;2023-04-24T00:01:09;21.93;;;10.03;;
18738;SDS011;9498;51.862;19.460;2023-04-24T00:03:38;18.27;;;9.97;;
18738;SDS011;9498;51.862;19.460;2023-04-24T00:06:05;18.93;;;9.57;;
18738;SDS011;9498;51.862;19.460;2023-04-24T00:08:33;24.27;;;10.30;;
18738;SDS011;9498;51.862;19.460;2023-04-24T00:11:00;18.93;;;9.77;;
18738;SDS011;9498;51.862;19.460;2023-04-24T00:13:28;22.57;;;9.83;;
18738;SDS011;9498;51.862;19.460;2023-04-24T00:15:55;22.90;;;10.53;;
18738;SDS011;9498;51.862;19.460;2023-04-24T00:18:23;18.30;;;10.20;;
18738;SDS011;9498;51.862;19.460;2023-04-24T00:20:51;20.63;;;10.20;;
18738;SDS011;9498;51.862;19.460;2023-04-24T00:23:18;20.73;;;10.77;;
18738;SDS011;9498;51.862;19.460;2023-04-24T00:25:45;23.03;;;10.87;;
18738;SDS011;9498;51.862;19.460;2023-04-24T00:28:12;21.37;;;10.70;;
18738;SDS011;9498;51.862;19.460;2023-04-24T00:30:40;17.40;;;10.03;;
18738;SDS011;9498;51.862;19.460;2023-04-24T00:33:07;18.03;;;9.93;;
18738;SDS011;9498;51.862;19.460;2023-04-24T00:35:36;18.77;;;10.20;;
18738;SDS011;9498;51.862;19.460;2023-04-24T00:38:03;25.10;;;10.77;;
18738;SDS011;9498;51.862;19.460;2023-04-24T00:40:30;23.77;;;10.53;;
18738;SDS011;9498;51.862;19.460;2023-04-24T00:42:57;22.57;;;10.17;;
18738;SDS011;9498;51.862;19.460;2023-04-24T00:45:25;20.63;;;10.00;;
18738;SDS011;9498;51.862;19.460;2023-04-24T00:47:52;27.00;;;10.20;;
18738;SDS011;9498;51.862;19.460;2023-04-24T00:50:20;22.40;;;11.03;;
18738;SDS011;9498;51.862;19.460;2023-04-24T00:52:49;20.13;;;9.90;;
18738;SDS011;9498;51.862;19.460;2023-04-24T00:55:16;26.00;;;11.20;;
18738;SDS011;9498;51.862;19.460;2023-04-24T00:57:44;24.20;;;10.80;;
18738;SDS011;9498;51.862;19.460;2023-04-24T01:00:12;26.63;;;11.00;;
18738;SDS011;9498;51.862;19.460;2023-04-24T01:02:41;20.10;;;10.90;;
18738;SDS011;9498;51.862;19.460;2023-04-24T01:05:10;22.87;;;10.70;;
18738;SDS011;9498;51.862;19.460;2023-04-24T01:07:38;24.10;;;10.87;;
18738;SDS011;9498;51.862;19.460;2023-04-24T01:10:07;20.70;;;10.53;;
18738;SDS011;9498;51.862;19.460;2023-04-24T01:12:35;23.53;;;10.97;;
18738;SDS011;9498;51.862;19.460;2023-04-24T01:15:02;21.50;;;10.27;;
18738;SDS011;9498;51.862;19.460;2023-04-24T01:17:30;24.80;;;11.00;;
18738;SDS011;9498;51.862;19.460;2023-04-24T01:19:57;22.57;;;10.97;;
18738;SDS011;9498;51.862;19.460;2023-04-24T01:22:26;24.93;;;10.23;;
18738;SDS011;9498;51.862;19.460;2023-04-24T01:24:53;19.20;;;10.40;;
18738;SDS011;9498;51.862;19.460;2023-04-24T01:27:21;24.43;;;12.03;;
18738;SDS011;9498;51.862;19.460;2023-04-24T01:29:48;21.37;;;10.10;;
18738;SDS011;9498;51.862;19.460;2023-04-24T01:32:17;24.63;;;10.40;;
18738;SDS011;9498;51.862;19.460;2023-04-24T01:34:45;18.23;;;9.60;;
18738;SDS011;9498;51.862;19.460;2023-04-24T01:37:12;24.23;;;10.80;;
18738;SDS011;9498;51.862;19.460;2023-04-24T01:39:42;17.73;;;10.17;;
18738;SDS011;9498;51.862;19.460;2023-04-24T01:42:09;21.37;;;11.07;;
18738;SDS011;9498;51.862;19.460;2023-04-24T01:44:36;24.17;;;10.47;;
18738;SDS011;9498;51.862;19.460;2023-04-24T01:47:03;19.17;;;10.83;;
18738;SDS011;9498;51.862;19.460;2023-04-24T01:49:31;20.07;;;11.30;;
18738;SDS011;9498;51.862;19.460;2023-04-24T01:51:58;21.47;;;10.57;;
18738;SDS011;9498;51.862;19.460;2023-04-24T01:54:25;22.97;;;11.17;;
18738;SDS011;9498;51.862;19.460;2023-04-24T01:56:54;20.20;;;10.93;;
18738;SDS011;9498;51.862;19.460;2023-04-24T01:59:21;18.00;;;9.87;;
18738;SDS011;9498;51.862;19.460;2023-04-24T02:01:50;22.27;;;11.00;;
18738;SDS011;9498;51.862;19.460;2023-04-24T02:04:17;20.33;;;11.03;;
18738;SDS011;9498;51.862;19.460;2023-04-24T02:06:44;22.87;;;11.40;;
18738;SDS011;9498;51.862;19.460;2023-04-24T02:09:11;19.63;;;11.10;;
18738;SDS011;9498;51.862;19.460;2023-04-24T02:11:39;21.67;;;11.07;;
18738;SDS011;9498;51.862;19.460;2023-04-24T02:14:07;19.83;;;10.33;;
18738;SDS011;9498;51.862;19.460;2023-04-24T02:16:34;20.33;;;9.70;;
18738;SDS011;9498;51.862;19.460;2023-04-24T02:19:02;22.50;;;10.00;;
18738;SDS011;9498;51.862;19.460;2023-04-24T02:21:29;19.10;;;10.27;;
18738;SDS011;9498;51.862;19.460;2023-04-24T02:23:56;18.40;;;10.17;;
18738;SDS011;9498;51.862;19.460;2023-04-24T02:26:24;21.40;;;11.03;;
18738;SDS011;9498;51.862;19.460;2023-04-24T02:28:51;19.40;;;10.20;;
18738;SDS011;9498;51.862;19.460;2023-04-24T02:31:19;17.80;;;9.80;;
18738;SDS011;9498;51.862;19.460;2023-04-24T02:33:47;18.13;;;9.93;;
18738;SDS011;9498;51.862;19.460;2023-04-24T02:36:14;16.80;;;9.90;;
18738;SDS011;9498;51.862;19.460;2023-04-24T02:38:41;22.93;;;10.20;;
18738;SDS011;9498;51.862;19.460;2023-04-24T02:41:08;18.70;;;10.17;;
18738;SDS011;9498;51.862;19.460;2023-04-24T02:43:35;21.67;;;10.37;;
18738;SDS011;9498;51.862;19.460;2023-04-24T02:46:03;21.47;;;10.87;;
18738;SDS011;9498;51.862;19.460;2023-04-24T02:48:31;19.97;;;10.40;;
18738;SDS011;9498;51.862;19.460;2023-04-24T02:50:58;19.97;;;10.70;;
18738;SDS011;9498;51.862;19.460;2023-04-24T02:53:26;22.00;;;10.53;;
18738;SDS011;9498;51.862;19.460;2023-04-24T02:55:54;15.77;;;9.33;;
18738;SDS011;9498;51.862;19.460;2023-04-24T02:58:22;20.17;;;10.43;;
18738;SDS011;9498;51.862;19.460;2023-04-24T03:00:52;17.93;;;9.57;;
18738;SDS011;9498;51.862;19.460;2023-04-24T03:03:20;18.27;;;10.23;;
18738;SDS011;9498;51.862;19.460;2023-04-24T03:05:49;21.10;;;10.60;;
18738;SDS011;9498;51.862;19.460;2023-04-24T03:08:17;18.57;;;9.70;;
18738;SDS011;9498;51.862;19.460;2023-04-24T03:10:44;18.03;;;10.27;;
18738;SDS011;9498;51.862;19.460;2023-04-24T03:13:11;18.50;;;10.20;;
18738;SDS011;9498;51.862;19.460;2023-04-24T03:15:38;16.83;;;9.63;;
18738;SDS011;9498;51.862;19.460;2023-04-24T03:18:06;18.40;;;10.27;;
18738;SDS011;9498;51.862;19.460;2023-04-24T03:20:33;18.97;;;10.50;;
18738;SDS011;9498;51.862;19.460;2023-04-24T03:23:03;18.17;;;10.30;;
18738;SDS011;9498;51.862;19.460;2023-04-24T03:25:30;19.80;;;11.00;;
18738;SDS011;9498;51.862;19.460;2023-04-24T03:27:57;19.87;;;10.27;;
18738;SDS011;9498;51.862;19.460;2023-04-24T03:30:25;19.30;;;10.57;;
18738;SDS011;9498;51.862;19.460;2023-04-24T03:32:52;22.30;;;10.40;;
18738;SDS011;9498;51.862;19.460;2023-04-24T03:35:19;20.77;;;9.97;;
18738;SDS011;9498;51.862;19.460;2023-04-24T03:37:47;19.43;;;10.30;;
18738;SDS011;9498;51.862;19.460;2023-04-24T03:40:16;20.10;;;10.30;;
18738;SDS011;9498;51.862;19.460;2023-04-24T03:42:43;21.93;;;10.63;;
18738;SDS011;9498;51.862;19.460;2023-04-24T03:45:10;21.00;;;10.43;;
18738;SDS011;9498;51.862;19.460;2023-04-24T03:47:37;21.43;;;10.70;;
18738;SDS011;9498;51.862;19.460;2023-04-24T03:50:05;19.47;;;10.80;;
18738;SDS011;9498;51.862;19.460;2023-04-24T03:52:32;19.33;;;10.63;;
18738;SDS011;9498;51.862;19.460;2023-04-24T03:55:00;20.67;;;11.30;;
18738;SDS011;9498;51.862;19.460;2023-04-24T03:57:29;22.23;;;10.77;;
18738;SDS011;9498;51.862;19.460;2023-04-24T03:59:56;18.30;;;10.47;;
18738;SDS011;9498;51.862;19.460;2023-04-24T04:02:23;24.20;;;10.37;;
18738;SDS011;9498;51.862;19.460;2023-04-24T04:04:50;23.30;;;10.57;;
18738;SDS011;9498;51.862;19.460;2023-04-24T04:07:18;22.97;;;10.40;;
18738;SDS011;9498;51.862;19.460;2023-04-24T04:09:45;20.17;;;10.60;;
18738;SDS011;9498;51.862;19.460;2023-04-24T04:12:12;18.07;;;10.10;;
18738;SDS011;9498;51.862;19.460;2023-04-24T04:14:41;20.70;;;10.87;;
18738;SDS011;9498;51.862;19.460;2023-04-24T04:17:08;22.07;;;9.80;;
18738;SDS011;9498;51.862;19.460;2023-04-24T04:19:35;20.23;;;10.17;;
18738;SDS011;9498;51.862;19.460;2023-04-24T04:22:02;20.83;;;10.60;;
18738;SDS011;9498;51.862;19.460;2023-04-24T04:24:29;18.33;;;9.70;;
18738;SDS011;9498;51.862;19.460;2023-04-24T04:26:57;20.23;;;10.67;;
18738;SDS011;9498;51.862;19.460;2023-04-24T04:29:24;20.90;;;10.70;;
18738;SDS011;9498;51.862;19.460;2023-04-24T04:31:52;20.33;;;9.60;;
18738;SDS011;9498;51.862;19.460;2023-04-24T04:34:20;19.03;;;9.60;;
18738;SDS011;9498;51.862;19.460;2023-04-24T04:36:47;18.00;;;9.40;;
18738;SDS011;9498;51.862;19.460;2023-04-24T04:39:15;19.97;;;10.13;;
18738;SDS011;9498;51.862;19.460;2023-04-24T04:41:43;16.33;;;9.90;;
18738;SDS011;9498;51.862;19.460;2023-04-24T04:44:11;17.37;;;10.17;;
18738;SDS011;9498;51.862;19.460;2023-04-24T04:46:39;22.23;;;9.77;;
18738;SDS011;9498;51.862;19.460;2023-04-24T04:49:08;19.27;;;10.33;;
18738;SDS011;9498;51.862;19.460;2023-04-24T04:51:36;18.47;;;10.17;;
18738;SDS011;9498;51.862;19.460;2023-04-24T04:54:03;23.70;;;11.00;;
18738;SDS011;9498;51.862;19.460;2023-04-24T04:56:30;24.30;;;11.67;;
18738;SDS011;9498;51.862;19.460;2023-04-24T04:58:57;19.97;;;10.17;;
18738;SDS011;9498;51.862;19.460;2023-04-24T05:01:24;19.57;;;10.70;;
18738;SDS011;9498;51.862;19.460;2023-04-24T05:03:52;14.80;;;9.43;;
18738;SDS011;9498;51.862;19.460;2023-04-24T05:06:21;17.97;;;10.23;;
18738;SDS011;9498;51.862;19.460;2023-04-24T05:08:48;20.10;;;9.13;;
18738;SDS011;9498;51.862;19.460;2023-04-24T05:11:16;16.70;;;9.00;;
18738;SDS011;9498;51.862;19.460;2023-04-24T05:13:43;21.33;;;9.20;;
18738;SDS011;9498;51.862;19.460;2023-04-24T05:16:10;16.53;;;8.40;;
18738;SDS011;9498;51.862;19.460;2023-04-24T05:18:37;14.87;;;8.80;;
18738;SDS011;9498;51.862;19.460;2023-04-24T05:21:05;13.70;;;8.37;;
18738;SDS011;9498;51.862;19.460;2023-04-24T05:23:33;15.97;;;7.40;;
18738;SDS011;9498;51.862;19.460;2023-04-24T05:26:00;17.77;;;8.23;;
18738;SDS011;9498;51.862;19.460;2023-04-24T05:28:28;19.03;;;8.30;;
18738;SDS011;9498;51.862;19.460;2023-04-24T05:30:55;16.67;;;7.90;;
18738;SDS011;9498;51.862;19.460;2023-04-24T05:33:24;18.03;;;8.70;;
18738;SDS011;9498;51.862;19.460;2023-04-24T05:35:51;18.10;;;8.03;;
18738;SDS011;9498;51.862;19.460;2023-04-24T05:38:18;16.73;;;7.80;;
18738;SDS011;9498;51.862;19.460;2023-04-24T05:40:47;14.10;;;7.60;;
18738;SDS011;9498;51.862;19.460;2023-04-24T05:43:14;13.20;;;8.10;;
18738;SDS011;9498;51.862;19.460;2023-04-24T05:45:41;13.27;;;7.77;;
18738;SDS011;9498;51.862;19.460;2023-04-24T05:48:09;17.57;;;7.80;;
18738;SDS011;9498;51.862;19.460;2023-04-24T05:50:36;18.17;;;8.63;;
18738;SDS011;9498;51.862;19.460;2023-04-24T05:53:03;14.97;;;8.00;;
18738;SDS011;9498;51.862;19.460;2023-04-24T05:55:32;13.93;;;7.90;;
18738;SDS011;9498;51.862;19.460;2023-04-24T05:58:00;23.13;;;9.07;;
18738;SDS011;9498;51.862;19.460;2023-04-24T06:00:28;19.63;;;8.00;;
18738;SDS011;9498;51.862;19.460;2023-04-24T06:02:55;23.20;;;7.43;;
18738;SDS011;9498;51.862;19.460;2023-04-24T06:05:22;11.87;;;6.20;;
18738;SDS011;9498;51.862;19.460;2023-04-24T06:07:49;15.67;;;6.73;;
18738;SDS011;9498;51.862;19.460;2023-04-24T06:10:17;12.13;;;5.93;;
18738;SDS011;9498;51.862;19.460;2023-04-24T06:12:44;11.30;;;6.50;;
18738;SDS011;9498;51.862;19.460;2023-04-24T06:15:13;13.50;;;6.27;;
18738;SDS011;9498;51.862;19.460;2023-04-24T06:17:40;12.17;;;6.47;;
18738;SDS011;9498;51.862;19.460;2023-04-24T06:20:07;12.63;;;6.07;;
18738;SDS011;9498;51.862;19.460;2023-04-24T06:22:36;15.73;;;6.67;;
18738;SDS011;9498;51.862;19.460;2023-04-24T06:25:05;13.60;;;6.90;;
18738;SDS011;9498;51.862;19.460;2023-04-24T06:27:32;12.67;;;6.37;;
18738;SDS011;9498;51.862;19.460;2023-04-24T06:30:00;12.73;;;6.43;;
18738;SDS011;9498;51.862;19.460;2023-04-24T06:32:28;10.87;;;6.40;;
18738;SDS011;9498;51.862;19.460;2023-04-24T06:34:56;9.57;;;5.43;;
18738;SDS011;9498;51.862;19.460;2023-04-24T06:37:24;12.47;;;6.10;;
18738;SDS011;9498;51.862;19.460;2023-04-24T06:39:51;18.03;;;6.90;;
18738;SDS011;9498;51.862;19.460;2023-04-24T06:42:18;10.30;;;5.50;;
18738;SDS011;9498;51.862;19.460;2023-04-24T06:44:59;9.83;;;5.50;;
18738;SDS011;9498;51.862;19.460;2023-04-24T06:47:31;11.40;;;5.50;;
18738;SDS011;9498;51.862;19.460;2023-04-24T06:49:58;11.00;;;5.33;;
18738;SDS011;9498;51.862;19.460;2023-04-24T06:52:26;12.27;;;5.67;;
18738;SDS011;9498;51.862;19.460;2023-04-24T06:54:56;8.47;;;5.73;;
18738;SDS011;9498;51.862;19.460;2023-04-24T06:57:27;11.17;;;5.50;;
18738;SDS011;9498;51.862;19.460;2023-04-24T06:59:54;11.70;;;5.60;;
18738;SDS011;9498;51.862;19.460;2023-04-24T07:02:22;12.30;;;5.88;;
18738;SDS011;9498;51.862;19.460;2023-04-24T07:04:50;8.87;;;5.40;;
18738;SDS011;9498;51.862;19.460;2023-04-24T07:07:17;23.83;;;7.10;;
18738;SDS011;9498;51.862;19.460;2023-04-24T07:09:46;9.77;;;5.43;;
18738;SDS011;9498;51.862;19.460;2023-04-24T07:12:13;8.53;;;5.03;;
18738;SDS011;9498;51.862;19.460;2023-04-24T07:14:42;12.53;;;5.00;;
18738;SDS011;9498;51.862;19.460;2023-04-24T07:17:09;9.80;;;5.23;;
18738;SDS011;9498;51.862;19.460;2023-04-24T07:19:38;9.57;;;5.50;;
18738;SDS011;9498;51.862;19.460;2023-04-24T07:22:06;9.67;;;4.63;;
18738;SDS011;9498;51.862;19.460;2023-04-24T07:24:34;10.03;;;4.87;;
18738;SDS011;9498;51.862;19.460;2023-04-24T07:27:01;10.30;;;5.13;;
18738;SDS011;9498;51.862;19.460;2023-04-24T07:29:28;9.43;;;4.80;;
18738;SDS011;9498;51.862;19.460;2023-04-24T07:31:56;6.93;;;4.70;;
18738;SDS011;9498;51.862;19.460;2023-04-24T07:34:23;7.00;;;4.60;;
18738;SDS011;9498;51.862;19.460;2023-04-24T07:36:50;13.33;;;4.73;;
18738;SDS011;9498;51.862;19.460;2023-04-24T07:39:19;10.53;;;4.90;;
18738;SDS011;9498;51.862;19.460;2023-04-24T07:41:46;10.00;;;5.00;;
18738;SDS011;9498;51.862;19.460;2023-04-24T07:44:13;13.67;;;4.90;;
18738;SDS011;9498;51.862;19.460;2023-04-24T07:46:40;9.80;;;4.67;;
18738;SDS011;9498;51.862;19.460;2023-04-24T07:49:08;12.07;;;5.00;;
18738;SDS011;9498;51.862;19.460;2023-04-24T07:51:35;10.57;;;4.57;;
18738;SDS011;9498;51.862;19.460;2023-04-24T07:54:03;9.47;;;4.90;;
18738;SDS011;9498;51.862;19.460;2023-04-24T07:56:33;10.73;;;4.80;;
18738;SDS011;9498;51.862;19.460;2023-04-24T07:59:03;7.00;;;4.50;;
18738;SDS011;9498;51.862;19.460;2023-04-24T08:01:31;10.10;;;5.10;;
18738;SDS011;9498;51.862;19.460;2023-04-24T08:03:58;10.03;;;4.87;;
18738;SDS011;9498;51.862;19.460;2023-04-24T08:06:25;8.53;;;4.60;;
18738;SDS011;9498;51.862;19.460;2023-04-24T08:08:55;8.27;;;4.50;;
18738;SDS011;9498;51.862;19.460;2023-04-24T08:11:22;20.73;;;4.73;;
18738;SDS011;9498;51.862;19.460;2023-04-24T08:13:51;10.13;;;4.90;;
18738;SDS011;9498;51.862;19.460;2023-04-24T08:16:19;7.37;;;4.63;;
18738;SDS011;9498;51.862;19.460;2023-04-24T08:18:46;8.23;;;4.47;;
18738;SDS011;9498;51.862;19.460;2023-04-24T08:21:14;9.00;;;5.23;;
18738;SDS011;9498;51.862;19.460;2023-04-24T08:23:43;8.83;;;4.93;;
18738;SDS011;9498;51.862;19.460;2023-04-24T08:26:11;7.00;;;4.60;;
18738;SDS011;9498;51.862;19.460;2023-04-24T08:28:38;9.17;;;4.57;;
18738;SDS011;9498;51.862;19.460;2023-04-24T08:31:07;6.83;;;4.60;;
18738;SDS011;9498;51.862;19.460;2023-04-24T08:33:34;7.30;;;4.80;;
18738;SDS011;9498;51.862;19.460;2023-04-24T08:36:01;9.70;;;4.83;;
18738;SDS011;9498;51.862;19.460;2023-04-24T08:38:28;12.83;;;5.20;;
18738;SDS011;9498;51.862;19.460;2023-04-24T08:40:57;8.00;;;4.50;;
18738;SDS011;9498;51.862;19.460;2023-04-24T08:43:25;8.67;;;4.50;;
18738;SDS011;9498;51.862;19.460;2023-04-24T08:45:54;8.87;;;5.00;;
18738;SDS011;9498;51.862;19.460;2023-04-24T08:48:23;10.93;;;5.50;;
18738;SDS011;9498;51.862;19.460;2023-04-24T08:50:50;10.10;;;4.93;;
18738;SDS011;9498;51.862;19.460;2023-04-24T08:53:18;7.97;;;4.80;;
18738;SDS011;9498;51.862;19.460;2023-04-24T08:55:46;10.60;;;5.10;;
18738;SDS011;9498;51.862;19.460;2023-04-24T08:58:15;9.70;;;5.03;;
18738;SDS011;9498;51.862;19.460;2023-04-24T09:00:43;8.30;;;5.07;;
18738;SDS011;9498;51.862;19.460;2023-04-24T09:03:13;7.70;;;4.70;;
18738;SDS011;9498;51.862;19.460;2023-04-24T09:05:43;8.70;;;4.60;;
18738;SDS011;9498;51.862;19.460;2023-04-24T09:08:12;9.80;;;4.93;;
18738;SDS011;9498;51.862;19.460;2023-04-24T09:10:40;9.20;;;5.10;;
18738;SDS011;9498;51.862;19.460;2023-04-24T09:13:07;9.83;;;5.07;;
18738;SDS011;9498;51.862;19.460;2023-04-24T09:15:35;7.73;;;4.70;;
18738;SDS011;9498;51.862;19.460;2023-04-24T09:18:02;8.67;;;4.53;;
18738;SDS011;9498;51.862;19.460;2023-04-24T09:20:30;10.20;;;5.17;;
18738;SDS011;9498;51.862;19.460;2023-04-24T09:22:58;7.77;;;4.40;;
18738;SDS011;9498;51.862;19.460;2023-04-24T09:25:30;7.00;;;4.20;;
18738;SDS011;9498;51.862;19.460;2023-04-24T09:28:00;7.80;;;4.47;;
18738;SDS011;9498;51.862;19.460;2023-04-24T09:30:27;7.87;;;4.83;;
18738;SDS011;9498;51.862;19.460;2023-04-24T09:33:09;9.37;;;4.80;;
18738;SDS011;9498;51.862;19.460;2023-04-24T09:35:40;10.40;;;4.90;;
18738;SDS011;9498;51.862;19.460;2023-04-24T09:38:09;8.10;;;4.90;;
18738;SDS011;9498;51.862;19.460;2023-04-24T09:40:36;7.90;;;4.40;;
18738;SDS011;9498;51.862;19.460;2023-04-24T09:43:03;8.60;;;4.77;;
18738;SDS011;9498;51.862;19.460;2023-04-24T09:45:34;8.00;;;4.33;;
18738;SDS011;9498;51.862;19.460;2023-04-24T09:48:02;6.00;;;4.50;;
18738;SDS011;9498;51.862;19.460;2023-04-24T09:50:30;9.03;;;4.20;;
18738;SDS011;9498;51.862;19.460;2023-04-24T09:53:01;13.37;;;4.93;;
18738;SDS011;9498;51.862;19.460;2023-04-24T09:55:32;10.87;;;5.20;;
18738;SDS011;9498;51.862;19.460;2023-04-24T09:58:00;6.63;;;3.97;;
18738;SDS011;9498;51.862;19.460;2023-04-24T10:00:31;9.67;;;4.27;;
18738;SDS011;9498;51.862;19.460;2023-04-24T10:02:59;11.33;;;5.10;;
18738;SDS011;9498;51.862;19.460;2023-04-24T10:05:27;7.93;;;4.67;;
18738;SDS011;9498;51.862;19.460;2023-04-24T10:08:00;7.40;;;4.67;;
18738;SDS011;9498;51.862;19.460;2023-04-24T10:10:28;8.30;;;4.40;;
18738;SDS011;9498;51.862;19.460;2023-04-24T10:12:57;11.33;;;4.40;;
18738;SDS011;9498;51.862;19.460;2023-04-24T10:15:24;11.87;;;5.20;;
18738;SDS011;9498;51.862;19.460;2023-04-24T10:17:51;9.80;;;4.57;;
18738;SDS011;9498;51.862;19.460;2023-04-24T10:20:19;7.80;;;4.63;;
18738;SDS011;9498;51.862;19.460;2023-04-24T10:22:47;8.07;;;4.90;;
18738;SDS011;9498;51.862;19.460;2023-04-24T10:25:16;8.27;;;5.07;;
18738;SDS011;9498;51.862;19.460;2023-04-24T10:27:44;13.50;;;4.73;;
18738;SDS011;9498;51.862;19.460;2023-04-24T10:30:13;7.82;;;5.00;;
18738;SDS011;9498;51.862;19.460;2023-04-24T10:32:41;10.50;;;4.80;;
18738;SDS011;9498;51.862;19.460;2023-04-24T10:35:08;9.10;;;5.23;;
18738;SDS011;9498;51.862;19.460;2023-04-24T10:37:37;9.63;;;4.90;;
18738;SDS011;9498;51.862;19.460;2023-04-24T10:40:05;12.23;;;4.77;;
18738;SDS011;9498;51.862;19.460;2023-04-24T10:42:33;18.53;;;5.57;;
18738;SDS011;9498;51.862;19.460;2023-04-24T10:45:04;8.77;;;4.53;;
18738;SDS011;9498;51.862;19.460;2023-04-24T10:47:40;10.37;;;4.73;;
18738;SDS011;9498;51.862;19.460;2023-04-24T10:50:08;8.03;;;4.67;;
18738;SDS011;9498;51.862;19.460;2023-04-24T10:52:44;8.90;;;5.13;;
18738;SDS011;9498;51.862;19.460;2023-04-24T10:55:12;9.53;;;5.10;;
18738;SDS011;9498;51.862;19.460;2023-04-24T10:57:40;7.63;;;4.50;;
18738;SDS011;9498;51.862;19.460;2023-04-24T11:00:27;7.10;;;4.50;;
18738;SDS011;9498;51.862;19.460;2023-04-24T11:02:56;8.03;;;4.40;;
18738;SDS011;9498;51.862;19.460;2023-04-24T11:05:48;10.17;;;5.30;;
18738;SDS011;9498;51.862;19.460;2023-04-24T11:08:16;8.17;;;4.83;;
18738;SDS011;9498;51.862;19.460;2023-04-24T11:10:54;6.57;;;4.33;;
18738;SDS011;9498;51.862;19.460;2023-04-24T11:13:22;10.60;;;4.90;;
18738;SDS011;9498;51.862;19.460;2023-04-24T11:18:38;8.10;;;5.13;;
18738;SDS011;9498;51.862;19.460;2023-04-24T11:21:09;9.47;;;5.20;;
18738;SDS011;9498;51.862;19.460;2023-04-24T11:23:37;9.57;;;5.53;;
18738;SDS011;9498;51.862;19.460;2023-04-24T11:26:10;11.40;;;5.50;;
18738;SDS011;9498;51.862;19.460;2023-04-24T11:28:43;9.10;;;4.80;;
18738;SDS011;9498;51.862;19.460;2023-04-24T11:33:54;10.03;;;5.40;;
18738;SDS011;9498;51.862;19.460;2023-04-24T11:36:21;9.50;;;5.20;;
18738;SDS011;9498;51.862;19.460;2023-04-24T11:38:48;11.40;;;4.90;;
18738;SDS011;9498;51.862;19.460;2023-04-24T11:41:16;11.70;;;5.27;;
18738;SDS011;9498;51.862;19.460;2023-04-24T11:43:43;8.57;;;5.43;;
18738;SDS011;9498;51.862;19.460;2023-04-24T11:46:10;9.63;;;5.33;;
18738;SDS011;9498;51.862;19.460;2023-04-24T11:48:38;10.23;;;5.53;;
18738;SDS011;9498;51.862;19.460;2023-04-24T11:51:07;8.90;;;5.30;;
18738;SDS011;9498;51.862;19.460;2023-04-24T11:53:34;9.67;;;4.80;;
18738;SDS011;9498;51.862;19.460;2023-04-24T11:56:03;9.67;;;5.37;;
18738;SDS011;9498;51.862;19.460;2023-04-24T11:58:34;10.80;;;5.45;;
18738;SDS011;9498;51.862;19.460;2023-04-24T12:01:01;11.03;;;5.23;;
18738;SDS011;9498;51.862;19.460;2023-04-24T12:03:30;9.00;;;4.93;;
18738;SDS011;9498;51.862;19.460;2023-04-24T12:06:08;10.20;;;5.03;;
18738;SDS011;9498;51.862;19.460;2023-04-24T12:08:35;9.77;;;4.90;;
18738;SDS011;9498;51.862;19.460;2023-04-24T12:11:03;11.67;;;4.73;;
18738;SDS011;9498;51.862;19.460;2023-04-24T12:13:32;7.27;;;5.10;;
18738;SDS011;9498;51.862;19.460;2023-04-24T12:15:59;11.23;;;5.03;;
18738;SDS011;9498;51.862;19.460;2023-04-24T12:18:26;6.00;;;4.60;;
18738;SDS011;9498;51.862;19.460;2023-04-24T12:20:53;9.00;;;4.90;;
18738;SDS011;9498;51.862;19.460;2023-04-24T12:23:34;7.53;;;4.17;;
18738;SDS011;9498;51.862;19.460;2023-04-24T12:26:03;7.55;;;4.60;;
18738;SDS011;9498;51.862;19.460;2023-04-24T12:28:34;6.47;;;4.20;;
18738;SDS011;9498;51.862;19.460;2023-04-24T12:31:02;7.07;;;4.70;;
18738;SDS011;9498;51.862;19.460;2023-04-24T12:33:32;10.37;;;5.00;;
18738;SDS011;9498;51.862;19.460;2023-04-24T12:35:59;7.20;;;4.37;;
18738;SDS011;9498;51.862;19.460;2023-04-24T12:38:27;9.17;;;4.70;;
18738;SDS011;9498;51.862;19.460;2023-04-24T12:41:03;7.83;;;4.10;;
18738;SDS011;9498;51.862;19.460;2023-04-24T12:43:30;6.70;;;4.27;;
18738;SDS011;9498;51.862;19.460;2023-04-24T12:45:58;6.80;;;4.30;;
18738;SDS011;9498;51.862;19.460;2023-04-24T12:48:25;10.63;;;4.27;;
18738;SDS011;9498;51.862;19.460;2023-04-24T12:50:52;7.28;;;4.00;;
18738;SDS011;9498;51.862;19.460;2023-04-24T12:53:20;7.37;;;4.17;;
18738;SDS011;9498;51.862;19.460;2023-04-24T12:55:47;6.73;;;4.23;;
18738;SDS011;9498;51.862;19.460;2023-04-24T12:58:20;6.83;;;4.37;;
18738;SDS011;9498;51.862;19.460;2023-04-24T13:00:47;7.03;;;4.13;;
18738;SDS011;9498;51.862;19.460;2023-04-24T13:03:14;6.67;;;4.10;;
18738;SDS011;9498;51.862;19.460;2023-04-24T13:05:41;6.00;;;4.20;;
18738;SDS011;9498;51.862;19.460;2023-04-24T13:08:09;5.57;;;4.07;;
18738;SDS011;9498;51.862;19.460;2023-04-24T13:10:38;13.27;;;4.43;;
18738;SDS011;9498;51.862;19.460;2023-04-24T13:13:06;6.10;;;4.00;;
18738;SDS011;9498;51.862;19.460;2023-04-24T13:15:34;9.80;;;3.80;;
18738;SDS011;9498;51.862;19.460;2023-04-24T13:18:02;7.55;;;4.05;;
18738;SDS011;9498;51.862;19.460;2023-04-24T13:20:29;6.57;;;4.00;;
18738;SDS011;9498;51.862;19.460;2023-04-24T13:22:56;8.97;;;3.97;;
18738;SDS011;9498;51.862;19.460;2023-04-24T13:25:24;9.27;;;4.40;;
18738;SDS011;9498;51.862;19.460;2023-04-24T13:27:52;8.93;;;4.97;;
18738;SDS011;9498;51.862;19.460;2023-04-24T13:30:19;7.63;;;4.40;;
18738;SDS011;9498;51.862;19.460;2023-04-24T13:32:47;8.47;;;4.37;;
18738;SDS011;9498;51.862;19.460;2023-04-24T13:35:15;6.80;;;4.63;;
18738;SDS011;9498;51.862;19.460;2023-04-24T13:37:42;13.60;;;4.83;;
18738;SDS011;9498;51.862;19.460;2023-04-24T13:40:10;7.93;;;4.30;;
18738;SDS011;9498;51.862;19.460;2023-04-24T13:42:37;8.07;;;5.03;;
18738;SDS011;9498;51.862;19.460;2023-04-24T13:45:05;9.00;;;4.97;;
18738;SDS011;9498;51.862;19.460;2023-04-24T13:47:32;11.87;;;5.07;;
18738;SDS011;9498;51.862;19.460;2023-04-24T13:50:01;7.17;;;4.27;;
18738;SDS011;9498;51.862;19.460;2023-04-24T13:52:29;7.67;;;4.60;;
18738;SDS011;9498;51.862;19.460;2023-04-24T13:54:56;9.63;;;5.17;;
18738;SDS011;9498;51.862;19.460;2023-04-24T13:57:23;9.07;;;4.90;;
18738;SDS011;9498;51.862;19.460;2023-04-24T13:59:50;7.07;;;4.70;;
18738;SDS011;9498;51.862;19.460;2023-04-24T14:02:18;8.57;;;5.27;;
18738;SDS011;9498;51.862;19.460;2023-04-24T14:04:45;9.50;;;5.30;;
18738;SDS011;9498;51.862;19.460;2023-04-24T14:07:14;8.73;;;4.77;;
18738;SDS011;9498;51.862;19.460;2023-04-24T14:09:41;9.50;;;4.77;;
18738;SDS011;9498;51.862;19.460;2023-04-24T14:12:09;11.13;;;4.67;;
18738;SDS011;9498;51.862;19.460;2023-04-24T14:14:36;7.07;;;4.93;;
18738;SDS011;9498;51.862;19.460;2023-04-24T14:17:03;8.70;;;4.97;;
18738;SDS011;9498;51.862;19.460;2023-04-24T14:19:31;8.00;;;5.20;;
18738;SDS011;9498;51.862;19.460;2023-04-24T14:21:59;9.43;;;5.13;;
18738;SDS011;9498;51.862;19.460;2023-04-24T14:24:27;12.07;;;5.10;;
18738;SDS011;9498;51.862;19.460;2023-04-24T14:26:54;12.77;;;5.40;;
18738;SDS011;9498;51.862;19.460;2023-04-24T14:29:22;9.27;;;4.93;;
18738;SDS011;9498;51.862;19.460;2023-04-24T14:31:50;14.70;;;5.60;;
18738;SDS011;9498;51.862;19.460;2023-04-24T14:34:18;13.10;;;4.77;;
18738;SDS011;9498;51.862;19.460;2023-04-24T14:36:45;10.67;;;5.10;;
18738;SDS011;9498;51.862;19.460;2023-04-24T14:39:12;8.43;;;4.90;;
18738;SDS011;9498;51.862;19.460;2023-04-24T14:41:41;9.87;;;5.43;;
18738;SDS011;9498;51.862;19.460;2023-04-24T14:44:08;9.47;;;5.30;;
18738;SDS011;9498;51.862;19.460;2023-04-24T14:46:35;13.37;;;5.70;;